sensor_id;sensor_type;location;lat;lon;timestamp;P1;durP1;ratioP1;P2;durP2;ratioP2
70975;SDS011;58635;51.198;6.010;2023-03-04T00:01:36;12.57;;;3.60;;
70975;SDS011;58635;51.198;6.010;2023-03-04T00:04:02;15.80;;;4.03;;
70975;SDS011;58635;51.198;6.010;2023-03-04T00:06:27;15.98;;;3.70;;
70975;SDS011;58635;51.198;6.010;2023-03-04T00:08:53;11.75;;;3.63;;
70975;SDS011;58635;51.198;6.010;2023-03-04T00:11:18;12.00;;;3.50;;
70975;SDS011;58635;51.198;6.010;2023-03-04T00:13:43;11.10;;;3.15;;
70975;SDS011;58635;51.198;6.010;2023-03-04T00:16:09;13.98;;;3.15;;
70975;SDS011;58635;51.198;6.010;2023-03-04T00:18:34;11.68;;;3.20;;
70975;SDS011;58635;51.198;6.010;2023-03-04T00:21:00;9.77;;;3.17;;
70975;SDS011;58635;51.198;6.010;2023-03-04T00:23:25;12.88;;;3.17;;
70975;SDS011;58635;51.198;6.010;2023-03-04T00:25:50;10.15;;;3.15;;
70975;SDS011;58635;51.198;6.010;2023-03-04T00:28:16;12.32;;;3.03;;
70975;SDS011;58635;51.198;6.010;2023-03-04T00:30:41;11.18;;;3.08;;
70975;SDS011;58635;51.198;6.010;2023-03-04T00:33:06;10.88;;;2.88;;
70975;SDS011;58635;51.198;6.010;2023-03-04T00:35:32;14.63;;;3.10;;
70975;SDS011;58635;51.198;6.010;2023-03-04T00:37:57;12.68;;;3.35;;
70975;SDS011;58635;51.198;6.010;2023-03-04T00:40:23;15.88;;;3.03;;
70975;SDS011;58635;51.198;6.010;2023-03-04T00:42:48;11.73;;;3.20;;
70975;SDS011;58635;51.198;6.010;2023-03-04T00:45:14;13.32;;;3.22;;
70975;SDS011;58635;51.198;6.010;2023-03-04T00:47:39;14.02;;;3.17;;
70975;SDS011;58635;51.198;6.010;2023-03-04T00:50:05;13.98;;;3.55;;
70975;SDS011;58635;51.198;6.010;2023-03-04T00:52:30;14.43;;;3.60;;
70975;SDS011;58635;51.198;6.010;2023-03-04T00:54:56;13.05;;;3.60;;
70975;SDS011;58635;51.198;6.010;2023-03-04T00:57:21;11.68;;;3.50;;
70975;SDS011;58635;51.198;6.010;2023-03-04T00:59:46;12.38;;;3.35;;
70975;SDS011;58635;51.198;6.010;2023-03-04T01:02:12;12.18;;;3.50;;
70975;SDS011;58635;51.198;6.010;2023-03-04T01:04:37;11.55;;;3.30;;
70975;SDS011;58635;51.198;6.010;2023-03-04T01:07:03;8.88;;;2.90;;
70975;SDS011;58635;51.198;6.010;2023-03-04T01:09:28;13.55;;;4.00;;
70975;SDS011;58635;51.198;6.010;2023-03-04T01:11:55;12.45;;;2.83;;
70975;SDS011;58635;51.198;6.010;2023-03-04T01:14:21;11.90;;;2.83;;
70975;SDS011;58635;51.198;6.010;2023-03-04T01:16:47;13.48;;;3.38;;
70975;SDS011;58635;51.198;6.010;2023-03-04T01:19:13;16.35;;;3.33;;
70975;SDS011;58635;51.198;6.010;2023-03-04T01:21:38;13.68;;;3.25;;
70975;SDS011;58635;51.198;6.010;2023-03-04T01:24:04;11.40;;;3.17;;
70975;SDS011;58635;51.198;6.010;2023-03-04T01:26:29;13.70;;;3.03;;
70975;SDS011;58635;51.198;6.010;2023-03-04T01:28:55;14.07;;;3.10;;
70975;SDS011;58635;51.198;6.010;2023-03-04T01:31:20;14.80;;;3.05;;
70975;SDS011;58635;51.198;6.010;2023-03-04T01:33:45;11.68;;;2.90;;
70975;SDS011;58635;51.198;6.010;2023-03-04T01:36:11;8.65;;;2.85;;
70975;SDS011;58635;51.198;6.010;2023-03-04T01:38:36;11.38;;;2.67;;
70975;SDS011;58635;51.198;6.010;2023-03-04T01:41:02;12.77;;;2.92;;
70975;SDS011;58635;51.198;6.010;2023-03-04T01:43:28;12.18;;;2.90;;
70975;SDS011;58635;51.198;6.010;2023-03-04T01:45:55;11.43;;;2.75;;
70975;SDS011;58635;51.198;6.010;2023-03-04T01:48:26;10.68;;;2.83;;
70975;SDS011;58635;51.198;6.010;2023-03-04T01:53:25;15.15;;;3.35;;
70975;SDS011;58635;51.198;6.010;2023-03-04T01:56:02;11.32;;;3.28;;
70975;SDS011;58635;51.198;6.010;2023-03-04T01:58:40;10.18;;;2.72;;
70975;SDS011;58635;51.198;6.010;2023-03-04T02:01:05;16.65;;;3.45;;
70975;SDS011;58635;51.198;6.010;2023-03-04T02:03:30;14.32;;;2.95;;
70975;SDS011;58635;51.198;6.010;2023-03-04T02:05:56;14.98;;;3.50;;
70975;SDS011;58635;51.198;6.010;2023-03-04T02:08:22;11.02;;;2.97;;
70975;SDS011;58635;51.198;6.010;2023-03-04T02:10:48;10.02;;;2.78;;
70975;SDS011;58635;51.198;6.010;2023-03-04T02:13:15;12.88;;;2.65;;
70975;SDS011;58635;51.198;6.010;2023-03-04T02:15:44;15.00;;;3.78;;
70975;SDS011;58635;51.198;6.010;2023-03-04T02:18:17;14.82;;;3.38;;
70975;SDS011;58635;51.198;6.010;2023-03-04T02:20:50;13.85;;;2.83;;
70975;SDS011;58635;51.198;6.010;2023-03-04T02:28:44;11.75;;;2.90;;
70975;SDS011;58635;51.198;6.010;2023-03-04T02:31:31;13.93;;;2.92;;
70975;SDS011;58635;51.198;6.010;2023-03-04T02:34:00;10.98;;;2.80;;
70975;SDS011;58635;51.198;6.010;2023-03-04T02:36:27;15.40;;;2.85;;
70975;SDS011;58635;51.198;6.010;2023-03-04T02:38:53;12.48;;;2.72;;
70975;SDS011;58635;51.198;6.010;2023-03-04T02:41:21;15.18;;;3.22;;
70975;SDS011;58635;51.198;6.010;2023-03-04T02:43:49;11.95;;;3.03;;
70975;SDS011;58635;51.198;6.010;2023-03-04T02:46:17;19.92;;;3.08;;
70975;SDS011;58635;51.198;6.010;2023-03-04T02:48:42;15.10;;;3.30;;
70975;SDS011;58635;51.198;6.010;2023-03-04T02:51:07;15.20;;;3.15;;
70975;SDS011;58635;51.198;6.010;2023-03-04T02:53:33;13.50;;;3.50;;
70975;SDS011;58635;51.198;6.010;2023-03-04T02:55:59;14.00;;;3.35;;
70975;SDS011;58635;51.198;6.010;2023-03-04T02:58:24;13.65;;;3.55;;
70975;SDS011;58635;51.198;6.010;2023-03-04T03:00:49;15.63;;;3.20;;
70975;SDS011;58635;51.198;6.010;2023-03-04T03:03:15;13.93;;;3.20;;
70975;SDS011;58635;51.198;6.010;2023-03-04T03:05:40;15.40;;;3.47;;
70975;SDS011;58635;51.198;6.010;2023-03-04T03:08:06;9.95;;;2.83;;
70975;SDS011;58635;51.198;6.010;2023-03-04T03:10:31;13.50;;;2.70;;
70975;SDS011;58635;51.198;6.010;2023-03-04T03:12:57;12.23;;;2.97;;
70975;SDS011;58635;51.198;6.010;2023-03-04T03:15:23;11.38;;;3.38;;
70975;SDS011;58635;51.198;6.010;2023-03-04T03:17:48;12.00;;;3.13;;
70975;SDS011;58635;51.198;6.010;2023-03-04T03:20:14;11.43;;;2.90;;
70975;SDS011;58635;51.198;6.010;2023-03-04T03:22:41;12.38;;;3.55;;
70975;SDS011;58635;51.198;6.010;2023-03-04T03:25:07;14.63;;;2.97;;
70975;SDS011;58635;51.198;6.010;2023-03-04T03:27:33;11.55;;;2.58;;
70975;SDS011;58635;51.198;6.010;2023-03-04T03:29:59;14.73;;;3.08;;
70975;SDS011;58635;51.198;6.010;2023-03-04T03:32:24;11.15;;;2.47;;
70975;SDS011;58635;51.198;6.010;2023-03-04T03:34:50;10.30;;;2.35;;
70975;SDS011;58635;51.198;6.010;2023-03-04T03:37:15;18.75;;;3.50;;
70975;SDS011;58635;51.198;6.010;2023-03-04T03:39:41;10.00;;;2.33;;
70975;SDS011;58635;51.198;6.010;2023-03-04T03:42:06;12.85;;;2.47;;
70975;SDS011;58635;51.198;6.010;2023-03-04T03:44:32;12.98;;;2.97;;
70975;SDS011;58635;51.198;6.010;2023-03-04T03:46:57;14.98;;;3.25;;
70975;SDS011;58635;51.198;6.010;2023-03-04T03:49:23;12.77;;;2.70;;
70975;SDS011;58635;51.198;6.010;2023-03-04T03:51:48;11.23;;;2.60;;
70975;SDS011;58635;51.198;6.010;2023-03-04T03:54:14;13.57;;;2.95;;
70975;SDS011;58635;51.198;6.010;2023-03-04T03:56:39;9.15;;;2.60;;
70975;SDS011;58635;51.198;6.010;2023-03-04T03:59:04;15.00;;;2.60;;
70975;SDS011;58635;51.198;6.010;2023-03-04T04:01:30;16.85;;;3.30;;
70975;SDS011;58635;51.198;6.010;2023-03-04T04:03:57;12.57;;;2.50;;
70975;SDS011;58635;51.198;6.010;2023-03-04T04:06:23;11.90;;;2.88;;
70975;SDS011;58635;51.198;6.010;2023-03-04T04:08:49;15.48;;;3.40;;
70975;SDS011;58635;51.198;6.010;2023-03-04T04:11:14;10.55;;;2.75;;
70975;SDS011;58635;51.198;6.010;2023-03-04T04:13:40;11.20;;;2.92;;
70975;SDS011;58635;51.198;6.010;2023-03-04T04:16:05;11.65;;;3.05;;
70975;SDS011;58635;51.198;6.010;2023-03-04T04:18:31;17.20;;;2.95;;
70975;SDS011;58635;51.198;6.010;2023-03-04T04:20:57;14.05;;;2.90;;
70975;SDS011;58635;51.198;6.010;2023-03-04T04:23:22;18.25;;;3.67;;
70975;SDS011;58635;51.198;6.010;2023-03-04T04:25:47;9.90;;;2.25;;
70975;SDS011;58635;51.198;6.010;2023-03-04T04:28:13;9.63;;;2.78;;
70975;SDS011;58635;51.198;6.010;2023-03-04T04:30:38;16.63;;;3.22;;
70975;SDS011;58635;51.198;6.010;2023-03-04T04:33:04;10.05;;;2.25;;
70975;SDS011;58635;51.198;6.010;2023-03-04T04:35:32;16.90;;;3.33;;
70975;SDS011;58635;51.198;6.010;2023-03-04T04:38:00;13.25;;;3.20;;
70975;SDS011;58635;51.198;6.010;2023-03-04T04:40:26;11.80;;;3.38;;
70975;SDS011;58635;51.198;6.010;2023-03-04T04:42:51;12.73;;;3.10;;
70975;SDS011;58635;51.198;6.010;2023-03-04T04:45:17;13.27;;;3.33;;
70975;SDS011;58635;51.198;6.010;2023-03-04T04:47:42;9.50;;;3.97;;
70975;SDS011;58635;51.198;6.010;2023-03-04T04:50:08;12.10;;;2.80;;
70975;SDS011;58635;51.198;6.010;2023-03-04T04:52:33;11.07;;;3.60;;
70975;SDS011;58635;51.198;6.010;2023-03-04T04:54:59;12.63;;;3.85;;
70975;SDS011;58635;51.198;6.010;2023-03-04T04:57:25;12.35;;;3.03;;
70975;SDS011;58635;51.198;6.010;2023-03-04T04:59:50;10.20;;;2.85;;
70975;SDS011;58635;51.198;6.010;2023-03-04T05:02:16;9.73;;;2.28;;
70975;SDS011;58635;51.198;6.010;2023-03-04T05:04:41;13.45;;;2.42;;
70975;SDS011;58635;51.198;6.010;2023-03-04T05:07:07;12.32;;;3.10;;
70975;SDS011;58635;51.198;6.010;2023-03-04T05:09:32;10.02;;;1.92;;
70975;SDS011;58635;51.198;6.010;2023-03-04T05:11:58;10.07;;;2.35;;
70975;SDS011;58635;51.198;6.010;2023-03-04T05:14:23;12.80;;;2.85;;
70975;SDS011;58635;51.198;6.010;2023-03-04T05:16:48;12.10;;;3.05;;
70975;SDS011;58635;51.198;6.010;2023-03-04T05:19:16;12.05;;;2.65;;
70975;SDS011;58635;51.198;6.010;2023-03-04T05:21:42;12.18;;;2.20;;
70975;SDS011;58635;51.198;6.010;2023-03-04T05:24:08;10.77;;;2.25;;
70975;SDS011;58635;51.198;6.010;2023-03-04T05:26:33;9.73;;;1.98;;
70975;SDS011;58635;51.198;6.010;2023-03-04T05:28:59;9.68;;;2.42;;
70975;SDS011;58635;51.198;6.010;2023-03-04T05:31:24;14.75;;;2.50;;
70975;SDS011;58635;51.198;6.010;2023-03-04T05:33:50;10.30;;;2.72;;
70975;SDS011;58635;51.198;6.010;2023-03-04T05:36:15;8.68;;;2.33;;
70975;SDS011;58635;51.198;6.010;2023-03-04T05:38:40;9.27;;;2.28;;
70975;SDS011;58635;51.198;6.010;2023-03-04T05:41:06;12.93;;;2.13;;
70975;SDS011;58635;51.198;6.010;2023-03-04T05:43:32;11.35;;;2.67;;
70975;SDS011;58635;51.198;6.010;2023-03-04T05:45:59;10.00;;;2.50;;
70975;SDS011;58635;51.198;6.010;2023-03-04T05:48:25;11.00;;;2.33;;
70975;SDS011;58635;51.198;6.010;2023-03-04T05:50:55;13.25;;;2.63;;
70975;SDS011;58635;51.198;6.010;2023-03-04T05:53:21;11.73;;;2.63;;
70975;SDS011;58635;51.198;6.010;2023-03-04T05:55:48;11.63;;;2.67;;
70975;SDS011;58635;51.198;6.010;2023-03-04T05:58:15;8.02;;;2.17;;
70975;SDS011;58635;51.198;6.010;2023-03-04T06:00:41;11.57;;;2.22;;
70975;SDS011;58635;51.198;6.010;2023-03-04T06:03:10;8.70;;;2.45;;
70975;SDS011;58635;51.198;6.010;2023-03-04T06:05:39;13.10;;;2.78;;
70975;SDS011;58635;51.198;6.010;2023-03-04T06:08:04;12.32;;;2.88;;
70975;SDS011;58635;51.198;6.010;2023-03-04T06:10:29;9.57;;;2.50;;
70975;SDS011;58635;51.198;6.010;2023-03-04T06:12:55;9.00;;;3.05;;
70975;SDS011;58635;51.198;6.010;2023-03-04T06:15:20;12.07;;;2.33;;
70975;SDS011;58635;51.198;6.010;2023-03-04T06:17:46;10.82;;;2.53;;
70975;SDS011;58635;51.198;6.010;2023-03-04T06:20:11;10.23;;;2.35;;
70975;SDS011;58635;51.198;6.010;2023-03-04T06:22:37;12.65;;;2.47;;
70975;SDS011;58635;51.198;6.010;2023-03-04T06:25:03;10.85;;;2.20;;
70975;SDS011;58635;51.198;6.010;2023-03-04T06:27:28;10.18;;;2.20;;
70975;SDS011;58635;51.198;6.010;2023-03-04T06:29:54;13.13;;;2.42;;
70975;SDS011;58635;51.198;6.010;2023-03-04T06:32:20;12.35;;;2.70;;
70975;SDS011;58635;51.198;6.010;2023-03-04T06:34:46;14.25;;;3.08;;
70975;SDS011;58635;51.198;6.010;2023-03-04T06:37:11;14.75;;;2.90;;
70975;SDS011;58635;51.198;6.010;2023-03-04T06:39:36;10.02;;;2.22;;
70975;SDS011;58635;51.198;6.010;2023-03-04T06:42:02;12.50;;;2.25;;
70975;SDS011;58635;51.198;6.010;2023-03-04T06:44:27;10.65;;;2.22;;
70975;SDS011;58635;51.198;6.010;2023-03-04T06:46:53;14.02;;;2.55;;
70975;SDS011;58635;51.198;6.010;2023-03-04T06:49:18;9.48;;;2.10;;
70975;SDS011;58635;51.198;6.010;2023-03-04T06:51:44;9.40;;;2.92;;
70975;SDS011;58635;51.198;6.010;2023-03-04T06:54:09;11.32;;;2.05;;
70975;SDS011;58635;51.198;6.010;2023-03-04T06:56:34;8.05;;;2.17;;
70975;SDS011;58635;51.198;6.010;2023-03-04T06:59:00;8.02;;;2.28;;
70975;SDS011;58635;51.198;6.010;2023-03-04T07:01:26;11.45;;;2.00;;
70975;SDS011;58635;51.198;6.010;2023-03-04T07:03:53;7.32;;;1.98;;
70975;SDS011;58635;51.198;6.010;2023-03-04T07:06:21;9.23;;;2.25;;
70975;SDS011;58635;51.198;6.010;2023-03-04T07:08:48;10.00;;;2.03;;
70975;SDS011;58635;51.198;6.010;2023-03-04T07:11:14;7.18;;;1.85;;
70975;SDS011;58635;51.198;6.010;2023-03-04T07:13:40;12.70;;;2.10;;
70975;SDS011;58635;51.198;6.010;2023-03-04T07:16:07;8.57;;;1.88;;
70975;SDS011;58635;51.198;6.010;2023-03-04T07:18:34;8.15;;;1.83;;
70975;SDS011;58635;51.198;6.010;2023-03-04T07:21:01;9.18;;;2.25;;
70975;SDS011;58635;51.198;6.010;2023-03-04T07:23:27;7.88;;;1.75;;
70975;SDS011;58635;51.198;6.010;2023-03-04T07:25:52;7.35;;;1.65;;
70975;SDS011;58635;51.198;6.010;2023-03-04T07:28:19;10.00;;;2.60;;
70975;SDS011;58635;51.198;6.010;2023-03-04T07:30:44;9.63;;;2.10;;
70975;SDS011;58635;51.198;6.010;2023-03-04T07:33:10;11.77;;;2.20;;
70975;SDS011;58635;51.198;6.010;2023-03-04T07:35:35;11.75;;;2.17;;
70975;SDS011;58635;51.198;6.010;2023-03-04T07:38:01;6.75;;;1.75;;
70975;SDS011;58635;51.198;6.010;2023-03-04T07:40:27;8.32;;;1.60;;
70975;SDS011;58635;51.198;6.010;2023-03-04T07:42:53;10.50;;;1.98;;
70975;SDS011;58635;51.198;6.010;2023-03-04T07:45:20;8.73;;;1.60;;
70975;SDS011;58635;51.198;6.010;2023-03-04T07:47:46;15.73;;;2.40;;
70975;SDS011;58635;51.198;6.010;2023-03-04T07:50:12;10.05;;;2.13;;
70975;SDS011;58635;51.198;6.010;2023-03-04T07:52:38;9.35;;;2.03;;
70975;SDS011;58635;51.198;6.010;2023-03-04T07:55:09;11.80;;;2.97;;
70975;SDS011;58635;51.198;6.010;2023-03-04T07:57:39;11.27;;;3.10;;
70975;SDS011;58635;51.198;6.010;2023-03-04T08:00:09;8.75;;;3.10;;
70975;SDS011;58635;51.198;6.010;2023-03-04T08:02:35;9.35;;;2.28;;
70975;SDS011;58635;51.198;6.010;2023-03-04T08:05:01;7.53;;;2.30;;
70975;SDS011;58635;51.198;6.010;2023-03-04T08:07:26;8.27;;;1.83;;
70975;SDS011;58635;51.198;6.010;2023-03-04T08:09:51;10.57;;;2.28;;
70975;SDS011;58635;51.198;6.010;2023-03-04T08:12:17;8.50;;;1.85;;
70975;SDS011;58635;51.198;6.010;2023-03-04T08:14:43;9.32;;;1.73;;
70975;SDS011;58635;51.198;6.010;2023-03-04T08:17:08;7.05;;;1.92;;
70975;SDS011;58635;51.198;6.010;2023-03-04T08:19:34;9.73;;;1.83;;
70975;SDS011;58635;51.198;6.010;2023-03-04T08:22:01;7.18;;;1.40;;
70975;SDS011;58635;51.198;6.010;2023-03-04T08:24:27;6.93;;;1.50;;
70975;SDS011;58635;51.198;6.010;2023-03-04T08:26:53;7.40;;;1.70;;
70975;SDS011;58635;51.198;6.010;2023-03-04T08:29:19;7.07;;;1.70;;
70975;SDS011;58635;51.198;6.010;2023-03-04T08:31:47;7.70;;;1.90;;
70975;SDS011;58635;51.198;6.010;2023-03-04T08:34:13;6.90;;;1.48;;
70975;SDS011;58635;51.198;6.010;2023-03-04T08:36:39;7.78;;;1.48;;
70975;SDS011;58635;51.198;6.010;2023-03-04T08:39:06;4.85;;;1.40;;
70975;SDS011;58635;51.198;6.010;2023-03-04T08:41:32;5.88;;;1.52;;
70975;SDS011;58635;51.198;6.010;2023-03-04T08:43:58;6.47;;;1.80;;
70975;SDS011;58635;51.198;6.010;2023-03-04T08:46:24;7.95;;;1.77;;
70975;SDS011;58635;51.198;6.010;2023-03-04T08:48:49;11.63;;;2.95;;
70975;SDS011;58635;51.198;6.010;2023-03-04T08:51:15;9.35;;;2.53;;
70975;SDS011;58635;51.198;6.010;2023-03-04T08:53:41;11.55;;;2.22;;
70975;SDS011;58635;51.198;6.010;2023-03-04T08:56:07;11.18;;;1.77;;
70975;SDS011;58635;51.198;6.010;2023-03-04T08:58:34;9.10;;;1.88;;
70975;SDS011;58635;51.198;6.010;2023-03-04T09:01:00;8.38;;;2.40;;
70975;SDS011;58635;51.198;6.010;2023-03-04T09:03:25;7.40;;;2.85;;
70975;SDS011;58635;51.198;6.010;2023-03-04T09:05:51;11.20;;;2.42;;
70975;SDS011;58635;51.198;6.010;2023-03-04T09:08:18;8.10;;;2.10;;
70975;SDS011;58635;51.198;6.010;2023-03-04T09:10:44;9.82;;;2.30;;
70975;SDS011;58635;51.198;6.010;2023-03-04T09:13:10;6.57;;;1.90;;
70975;SDS011;58635;51.198;6.010;2023-03-04T09:15:37;6.45;;;1.73;;
70975;SDS011;58635;51.198;6.010;2023-03-04T09:18:12;8.60;;;2.10;;
70975;SDS011;58635;51.198;6.010;2023-03-04T09:20:38;6.38;;;1.50;;
70975;SDS011;58635;51.198;6.010;2023-03-04T09:23:04;7.70;;;1.73;;
70975;SDS011;58635;51.198;6.010;2023-03-04T09:25:29;8.38;;;1.65;;
70975;SDS011;58635;51.198;6.010;2023-03-04T09:27:54;4.43;;;1.52;;
70975;SDS011;58635;51.198;6.010;2023-03-04T09:30:20;6.75;;;1.63;;
70975;SDS011;58635;51.198;6.010;2023-03-04T09:32:45;11.02;;;1.63;;
70975;SDS011;58635;51.198;6.010;2023-03-04T09:35:11;8.25;;;2.05;;
70975;SDS011;58635;51.198;6.010;2023-03-04T09:37:37;7.35;;;3.03;;
70975;SDS011;58635;51.198;6.010;2023-03-04T09:40:03;8.20;;;2.58;;
70975;SDS011;58635;51.198;6.010;2023-03-04T09:42:37;7.82;;;1.85;;
70975;SDS011;58635;51.198;6.010;2023-03-04T09:45:10;8.68;;;1.80;;
70975;SDS011;58635;51.198;6.010;2023-03-04T09:47:41;8.18;;;1.83;;
70975;SDS011;58635;51.198;6.010;2023-03-04T09:50:10;5.78;;;1.70;;
70975;SDS011;58635;51.198;6.010;2023-03-04T09:55:20;10.75;;;2.95;;
70975;SDS011;58635;51.198;6.010;2023-03-04T09:58:01;6.47;;;2.75;;
70975;SDS011;58635;51.198;6.010;2023-03-04T10:00:40;6.38;;;1.70;;
70975;SDS011;58635;51.198;6.010;2023-03-04T10:03:48;5.03;;;1.45;;
70975;SDS011;58635;51.198;6.010;2023-03-04T10:06:19;6.57;;;1.45;;
70975;SDS011;58635;51.198;6.010;2023-03-04T10:11:47;6.97;;;1.50;;
70975;SDS011;58635;51.198;6.010;2023-03-04T10:22:18;5.35;;;1.55;;
70975;SDS011;58635;51.198;6.010;2023-03-04T10:24:50;5.63;;;1.50;;
70975;SDS011;58635;51.198;6.010;2023-03-04T10:27:21;7.47;;;1.50;;
70975;SDS011;58635;51.198;6.010;2023-03-04T10:29:47;9.60;;;1.52;;
70975;SDS011;58635;51.198;6.010;2023-03-04T10:32:18;6.72;;;1.52;;
70975;SDS011;58635;51.198;6.010;2023-03-04T10:34:44;4.25;;;1.50;;
70975;SDS011;58635;51.198;6.010;2023-03-04T10:37:11;5.85;;;1.67;;
70975;SDS011;58635;51.198;6.010;2023-03-04T10:39:40;7.28;;;2.03;;
70975;SDS011;58635;51.198;6.010;2023-03-04T10:44:41;5.13;;;1.42;;
70975;SDS011;58635;51.198;6.010;2023-03-04T10:47:09;7.75;;;1.45;;
70975;SDS011;58635;51.198;6.010;2023-03-04T10:49:48;7.50;;;2.10;;
70975;SDS011;58635;51.198;6.010;2023-03-04T10:52:37;6.00;;;2.40;;
70975;SDS011;58635;51.198;6.010;2023-03-04T10:55:15;6.25;;;1.75;;
70975;SDS011;58635;51.198;6.010;2023-03-04T10:57:50;6.88;;;2.10;;
70975;SDS011;58635;51.198;6.010;2023-03-04T11:00:26;4.95;;;1.70;;
70975;SDS011;58635;51.198;6.010;2023-03-04T11:03:13;5.15;;;1.42;;
70975;SDS011;58635;51.198;6.010;2023-03-04T11:08:17;5.85;;;1.40;;
70975;SDS011;58635;51.198;6.010;2023-03-04T11:10:43;6.25;;;1.48;;
70975;SDS011;58635;51.198;6.010;2023-03-04T11:15:54;5.63;;;1.55;;
70975;SDS011;58635;51.198;6.010;2023-03-04T11:18:39;5.85;;;1.40;;
70975;SDS011;58635;51.198;6.010;2023-03-04T11:21:12;7.13;;;1.50;;
70975;SDS011;58635;51.198;6.010;2023-03-04T11:23:46;5.28;;;1.30;;
70975;SDS011;58635;51.198;6.010;2023-03-04T11:29:04;4.25;;;1.40;;
70975;SDS011;58635;51.198;6.010;2023-03-04T11:31:37;4.47;;;1.60;;
70975;SDS011;58635;51.198;6.010;2023-03-04T11:39:58;3.25;;;1.20;;
70975;SDS011;58635;51.198;6.010;2023-03-04T11:45:26;4.35;;;1.70;;
70975;SDS011;58635;51.198;6.010;2023-03-04T11:50:56;5.50;;;2.40;;
70975;SDS011;58635;51.198;6.010;2023-03-04T11:53:36;4.65;;;1.50;;
70975;SDS011;58635;51.198;6.010;2023-03-04T11:59:11;4.82;;;2.00;;
70975;SDS011;58635;51.198;6.010;2023-03-04T12:12:57;4.25;;;1.40;;
70975;SDS011;58635;51.198;6.010;2023-03-04T12:15:45;3.35;;;1.38;;
70975;SDS011;58635;51.198;6.010;2023-03-04T12:18:26;4.57;;;1.27;;
70975;SDS011;58635;51.198;6.010;2023-03-04T12:21:12;5.07;;;1.73;;
70975;SDS011;58635;51.198;6.010;2023-03-04T12:26:30;5.38;;;1.30;;
70975;SDS011;58635;51.198;6.010;2023-03-04T12:29:03;6.07;;;1.40;;
70975;SDS011;58635;51.198;6.010;2023-03-04T12:31:53;4.70;;;1.20;;
70975;SDS011;58635;51.198;6.010;2023-03-04T12:43:01;5.32;;;1.17;;
70975;SDS011;58635;51.198;6.010;2023-03-04T12:56:37;3.63;;;1.30;;
70975;SDS011;58635;51.198;6.010;2023-03-04T12:59:17;3.17;;;1.20;;
70975;SDS011;58635;51.198;6.010;2023-03-04T13:01:51;3.50;;;1.48;;
70975;SDS011;58635;51.198;6.010;2023-03-04T13:09:57;3.88;;;1.65;;
70975;SDS011;58635;51.198;6.010;2023-03-04T13:12:45;6.03;;;1.65;;
70975;SDS011;58635;51.198;6.010;2023-03-04T13:20:18;5.78;;;1.70;;
70975;SDS011;58635;51.198;6.010;2023-03-04T13:28:05;3.97;;;1.55;;
70975;SDS011;58635;51.198;6.010;2023-03-04T13:51:16;4.13;;;1.40;;
70975;SDS011;58635;51.198;6.010;2023-03-04T13:58:51;3.40;;;1.45;;
70975;SDS011;58635;51.198;6.010;2023-03-04T14:01:27;3.50;;;1.40;;
70975;SDS011;58635;51.198;6.010;2023-03-04T14:03:55;5.10;;;1.80;;
70975;SDS011;58635;51.198;6.010;2023-03-04T14:06:23;4.63;;;1.75;;
70975;SDS011;58635;51.198;6.010;2023-03-04T14:08:50;6.05;;;1.80;;
70975;SDS011;58635;51.198;6.010;2023-03-04T14:11:37;5.13;;;2.15;;
70975;SDS011;58635;51.198;6.010;2023-03-04T14:14:29;7.57;;;2.63;;
70975;SDS011;58635;51.198;6.010;2023-03-04T14:17:15;3.67;;;1.90;;
70975;SDS011;58635;51.198;6.010;2023-03-04T14:19:44;4.57;;;2.10;;
70975;SDS011;58635;51.198;6.010;2023-03-04T14:22:30;7.97;;;2.15;;
70975;SDS011;58635;51.198;6.010;2023-03-04T14:27:43;5.53;;;2.22;;
70975;SDS011;58635;51.198;6.010;2023-03-04T14:30:27;5.95;;;2.45;;
70975;SDS011;58635;51.198;6.010;2023-03-04T14:32:53;6.40;;;2.90;;
70975;SDS011;58635;51.198;6.010;2023-03-04T14:35:26;5.47;;;2.13;;
70975;SDS011;58635;51.198;6.010;2023-03-04T14:38:01;3.20;;;2.00;;
70975;SDS011;58635;51.198;6.010;2023-03-04T14:40:40;6.50;;;2.47;;
70975;SDS011;58635;51.198;6.010;2023-03-04T14:43:13;8.13;;;2.13;;
70975;SDS011;58635;51.198;6.010;2023-03-04T14:45:42;5.05;;;2.25;;
70975;SDS011;58635;51.198;6.010;2023-03-04T14:48:26;5.43;;;2.25;;
70975;SDS011;58635;51.198;6.010;2023-03-04T14:50:55;4.47;;;2.30;;
70975;SDS011;58635;51.198;6.010;2023-03-04T14:53:23;4.95;;;2.30;;
70975;SDS011;58635;51.198;6.010;2023-03-04T14:55:53;4.75;;;2.08;;
70975;SDS011;58635;51.198;6.010;2023-03-04T14:58:22;5.00;;;2.30;;
70975;SDS011;58635;51.198;6.010;2023-03-04T15:01:16;5.40;;;2.40;;
70975;SDS011;58635;51.198;6.010;2023-03-04T15:03:55;4.15;;;2.30;;
70975;SDS011;58635;51.198;6.010;2023-03-04T15:06:25;5.93;;;2.45;;
70975;SDS011;58635;51.198;6.010;2023-03-04T15:09:16;6.47;;;3.03;;
70975;SDS011;58635;51.198;6.010;2023-03-04T15:11:50;7.50;;;3.95;;
70975;SDS011;58635;51.198;6.010;2023-03-04T15:17:45;5.78;;;2.67;;
70975;SDS011;58635;51.198;6.010;2023-03-04T15:22:29;4.82;;;2.28;;
70975;SDS011;58635;51.198;6.010;2023-03-04T15:24:55;3.47;;;2.25;;
70975;SDS011;58635;51.198;6.010;2023-03-04T15:27:21;6.13;;;2.83;;
70975;SDS011;58635;51.198;6.010;2023-03-04T15:29:50;4.00;;;2.58;;
70975;SDS011;58635;51.198;6.010;2023-03-04T15:32:20;6.53;;;2.75;;
70975;SDS011;58635;51.198;6.010;2023-03-04T15:34:47;4.97;;;2.80;;
70975;SDS011;58635;51.198;6.010;2023-03-04T15:37:13;4.72;;;2.42;;
70975;SDS011;58635;51.198;6.010;2023-03-04T15:42:11;5.95;;;2.85;;
70975;SDS011;58635;51.198;6.010;2023-03-04T15:44:38;10.25;;;3.20;;
70975;SDS011;58635;51.198;6.010;2023-03-04T15:47:03;5.85;;;2.95;;
70975;SDS011;58635;51.198;6.010;2023-03-04T15:49:32;3.40;;;2.35;;
70975;SDS011;58635;51.198;6.010;2023-03-04T15:51:58;4.82;;;2.83;;
70975;SDS011;58635;51.198;6.010;2023-03-04T15:54:25;4.53;;;2.55;;
70975;SDS011;58635;51.198;6.010;2023-03-04T15:56:52;4.80;;;2.63;;
70975;SDS011;58635;51.198;6.010;2023-03-04T15:59:18;4.32;;;2.42;;
70975;SDS011;58635;51.198;6.010;2023-03-04T16:01:43;6.30;;;2.97;;
70975;SDS011;58635;51.198;6.010;2023-03-04T16:04:12;6.90;;;3.05;;
70975;SDS011;58635;51.198;6.010;2023-03-04T16:06:40;5.55;;;2.70;;
70975;SDS011;58635;51.198;6.010;2023-03-04T16:09:10;6.13;;;2.83;;
70975;SDS011;58635;51.198;6.010;2023-03-04T16:11:39;4.68;;;2.90;;
70975;SDS011;58635;51.198;6.010;2023-03-04T16:14:11;6.07;;;3.13;;
70975;SDS011;58635;51.198;6.010;2023-03-04T16:16:38;4.07;;;2.90;;
70975;SDS011;58635;51.198;6.010;2023-03-04T16:19:03;8.60;;;3.67;;
70975;SDS011;58635;51.198;6.010;2023-03-04T16:21:28;8.07;;;4.85;;
70975;SDS011;58635;51.198;6.010;2023-03-04T16:23:54;6.43;;;3.20;;
70975;SDS011;58635;51.198;6.010;2023-03-04T16:26:20;5.05;;;3.17;;
70975;SDS011;58635;51.198;6.010;2023-03-04T16:28:47;5.10;;;2.50;;
70975;SDS011;58635;51.198;6.010;2023-03-04T16:31:14;5.88;;;2.75;;
70975;SDS011;58635;51.198;6.010;2023-03-04T16:33:40;7.35;;;3.42;;
70975;SDS011;58635;51.198;6.010;2023-03-04T16:36:13;6.80;;;3.50;;
70975;SDS011;58635;51.198;6.010;2023-03-04T16:38:40;8.82;;;4.53;;
70975;SDS011;58635;51.198;6.010;2023-03-04T16:41:08;6.55;;;3.72;;
70975;SDS011;58635;51.198;6.010;2023-03-04T16:43:37;8.18;;;3.95;;
70975;SDS011;58635;51.198;6.010;2023-03-04T16:46:02;6.90;;;3.40;;
70975;SDS011;58635;51.198;6.010;2023-03-04T16:48:28;7.32;;;3.08;;
70975;SDS011;58635;51.198;6.010;2023-03-04T16:50:54;5.40;;;2.58;;
70975;SDS011;58635;51.198;6.010;2023-03-04T16:53:28;6.45;;;3.08;;
70975;SDS011;58635;51.198;6.010;2023-03-04T16:56:04;7.80;;;2.30;;
70975;SDS011;58635;51.198;6.010;2023-03-04T16:58:42;4.28;;;2.40;;
70975;SDS011;58635;51.198;6.010;2023-03-04T17:01:18;4.43;;;2.22;;